关键字:
您的位置:首页 >> 动漫>> 剧场动画
电视动画剧场动画OVA漫画动漫周边游戏动画国产音乐其它
资源列表
标题 发布日期 最后更新 大小
[剧场动画] 最小的天使 The.Littlest.Angel.2011.1080p.BluRay.x264-HD4U 3.28GB 2016-11-08 2016/11/8 13:44:21
[剧场动画] 修剪草坪的小黄人 Mower.Minions.2016.1080p.BluRay.x264-FLAME 400MB 2016-11-07 2016/11/7 19:55:33
[剧场动画] 鲁邦三世TV特别篇1989 拜拜了自由女神·危机一刻(Lupin The Third - Bye Bye Liberty Crisis 1989)BDRip 1920X1036 X265 Main10p 2016-11-07 2016/11/7 19:40:19
[剧场动画] 熊熊三贱客.We.Bare.Bears.S02E19.中英字幕.HDTVrip.1024X576.mp4 2016-11-07 2016/11/7 15:05:20 1.99 GB
[剧场动画] 圣诞精灵_巴迪的音乐圣诞 Elf.2014.1080p.BluRay.x264-SADPANDA 2.6GB 2016-11-06 2016/11/6 21:37:05
[剧场动画] 芭比姐妹之追逐的小狗 Barbie.2016.1080p.BluRay.x264-GUACAMOLE 5.47GB 2016-11-06 2016/11/6 21:27:17
[剧场动画] 名侦探柯南_剧场版20 纯黑的噩梦[韩版]2016.720p.KORDUB.HDRip-NB 3GB 2016-11-06 2016/11/6 14:54:45
[剧场动画] [临时女友?_Girl Friend Beta ?][3集全][日语简中][MP4][720P][F宅字幕] 2016-11-04 2016/11/4 18:39:44
[剧场动画] 鹬_鹞_派珀历险记 Piper.2016.INTERNAL.1080p.BluRay.x264-HDEX 1.08GB 2016-11-04 2016/11/4 18:30:51
[剧场动画] 松鼠飘飘然 Scrat.Spaced.Out.2016.1080p.BluRay.x264-FLAME 1.17GB 2016-11-03 2016/11/3 16:37:22
[剧场动画] 南方公园.South.Park.S20E06.中英字幕.HDTVrip.1024X576.mp4 2016-11-02 2016/11/2 14:23:41 1.23 GB
[剧场动画] [那年那兔哪些事儿 番外篇][全5集][国语中字][MP4][1080P][独家高码] 2016-11-01 2016/11/1 16:27:27
[剧场动画] 【怪盜小丑 第四季_Mysterious Joker 4th】[01v2][繁體][720P][MP4](急招翻校) 搜尋關鍵字:怪盜joker 2016-11-01 2016/11/1 4:10:38
[剧场动画] 七个小矮人.The.7D.S02E19.中英字幕.HR-HDTV.AAC.1024X576.x264.mp4 2016-10-31 2016/10/31 19:31:20 3.98 GB
[剧场动画] 和谐.BD1280高清日粤双语中字.mp4 2016-10-31 2016/10/31 2:33:51 4.12 GB
[剧场动画] 小鬼救地球_回声星球 Echo.Planet.2012.1080p.BluRay.x264-PussyFoot 7.65GB 2016-10-30 2016/10/30 14:30:47
[剧场动画] 开心汉堡店.Bobs.Burgers.S07E03.中英字幕.HR-HDTV.AC3.1024X576.x264.mp4 2016-10-30 2016/10/30 12:50:48 618.82 MB
[剧场动画] 怪兽中学_伤痕累累的珊瑚礁[国粤英]2016.1080p.BluRay.x264.DTS-WiKi 6.23GB 2016-10-29 2016/10/29 14:24:36
[剧场动画] 海底总动员2:多莉去哪儿.HD1280超清国英双语中英双字.mp4 2016-10-27 2016/10/27 16:04:29 1.96 GB
[剧场动画] [美妙旋律姐妹篇_美妙天堂_Pripara_第1期][01-38][合集修正][简体][720P][MP4] 2016-10-26 2016/10/26 18:03:46
10/1012345678910